sensor_id;sensor_type;location;lat;lon;timestamp;temperature;humidity
4050;DHT22;2039;50.894;6.888;2024-03-25T00:02:09;7.00;99.90
4050;DHT22;2039;50.894;6.888;2024-03-25T00:04:35;7.00;99.90
4050;DHT22;2039;50.894;6.888;2024-03-25T00:07:04;7.00;99.90
4050;DHT22;2039;50.894;6.888;2024-03-25T00:09:30;7.00;99.90
4050;DHT22;2039;50.894;6.888;2024-03-25T00:11:56;6.90;99.90
4050;DHT22;2039;50.894;6.888;2024-03-25T00:14:22;6.90;99.90
4050;DHT22;2039;50.894;6.888;2024-03-25T00:16:48;7.00;99.90
4050;DHT22;2039;50.894;6.888;2024-03-25T00:19:14;7.00;99.90
4050;DHT22;2039;50.894;6.888;2024-03-25T00:21:39;7.00;99.90
4050;DHT22;2039;50.894;6.888;2024-03-25T00:24:05;7.00;99.90
4050;DHT22;2039;50.894;6.888;2024-03-25T00:26:31;6.90;99.90
4050;DHT22;2039;50.894;6.888;2024-03-25T00:28:57;6.90;99.90
4050;DHT22;2039;50.894;6.888;2024-03-25T00:31:22;6.80;99.90
4050;DHT22;2039;50.894;6.888;2024-03-25T00:33:48;6.80;99.90
4050;DHT22;2039;50.894;6.888;2024-03-25T00:36:13;6.70;99.90
4050;DHT22;2039;50.894;6.888;2024-03-25T00:38:39;6.80;99.90
4050;DHT22;2039;50.894;6.888;2024-03-25T00:41:05;6.60;99.90
4050;DHT22;2039;50.894;6.888;2024-03-25T00:43:30;6.70;99.90
4050;DHT22;2039;50.894;6.888;2024-03-25T00:45:56;6.60;99.90
4050;DHT22;2039;50.894;6.888;2024-03-25T00:48:22;6.60;99.90
4050;DHT22;2039;50.894;6.888;2024-03-25T00:50:48;6.60;99.90
4050;DHT22;2039;50.894;6.888;2024-03-25T00:53:14;6.60;99.90
4050;DHT22;2039;50.894;6.888;2024-03-25T00:55:40;6.60;99.90
4050;DHT22;2039;50.894;6.888;2024-03-25T00:58:06;6.70;99.90
4050;DHT22;2039;50.894;6.888;2024-03-25T01:00:32;6.60;99.90
4050;DHT22;2039;50.894;6.888;2024-03-25T01:02:57;6.70;99.90
4050;DHT22;2039;50.894;6.888;2024-03-25T01:05:23;6.60;99.90
4050;DHT22;2039;50.894;6.888;2024-03-25T01:07:49;6.70;99.90
4050;DHT22;2039;50.894;6.888;2024-03-25T01:10:15;6.70;99.90
4050;DHT22;2039;50.894;6.888;2024-03-25T01:12:41;6.70;99.90
4050;DHT22;2039;50.894;6.888;2024-03-25T01:15:07;6.70;99.90
4050;DHT22;2039;50.894;6.888;2024-03-25T01:17:36;6.70;99.90
4050;DHT22;2039;50.894;6.888;2024-03-25T01:20:01;6.70;99.90
4050;DHT22;2039;50.894;6.888;2024-03-25T01:22:27;6.70;99.90
4050;DHT22;2039;50.894;6.888;2024-03-25T01:24:53;6.70;99.90
4050;DHT22;2039;50.894;6.888;2024-03-25T01:27:19;6.70;99.90
4050;DHT22;2039;50.894;6.888;2024-03-25T01:29:44;6.70;99.90
4050;DHT22;2039;50.894;6.888;2024-03-25T01:32:10;6.60;99.90
4050;DHT22;2039;50.894;6.888;2024-03-25T01:34:36;6.60;99.90
4050;DHT22;2039;50.894;6.888;2024-03-25T01:37:01;6.60;99.90
4050;DHT22;2039;50.894;6.888;2024-03-25T01:39:27;6.60;99.90
4050;DHT22;2039;50.894;6.888;2024-03-25T01:41:52;6.60;99.90
4050;DHT22;2039;50.894;6.888;2024-03-25T01:44:18;6.60;99.90
4050;DHT22;2039;50.894;6.888;2024-03-25T01:46:44;6.60;99.90
4050;DHT22;2039;50.894;6.888;2024-03-25T01:49:10;6.60;99.90
4050;DHT22;2039;50.894;6.888;2024-03-25T01:51:36;6.50;99.90
4050;DHT22;2039;50.894;6.888;2024-03-25T01:54:03;6.50;99.90
4050;DHT22;2039;50.894;6.888;2024-03-25T01:56:33;6.50;99.90
4050;DHT22;2039;50.894;6.888;2024-03-25T01:59:01;6.50;99.90
4050;DHT22;2039;50.894;6.888;2024-03-25T02:01:27;6.50;99.90
4050;DHT22;2039;50.894;6.888;2024-03-25T02:03:55;6.40;99.90
4050;DHT22;2039;50.894;6.888;2024-03-25T02:06:21;6.40;99.90
4050;DHT22;2039;50.894;6.888;2024-03-25T02:08:48;6.30;99.90
4050;DHT22;2039;50.894;6.888;2024-03-25T02:11:15;6.30;99.90
4050;DHT22;2039;50.894;6.888;2024-03-25T02:13:41;6.30;99.90
4050;DHT22;2039;50.894;6.888;2024-03-25T02:16:07;6.30;99.90
4050;DHT22;2039;50.894;6.888;2024-03-25T02:18:33;6.30;99.90
4050;DHT22;2039;50.894;6.888;2024-03-25T02:20:59;6.20;99.90
4050;DHT22;2039;50.894;6.888;2024-03-25T02:23:26;6.20;99.90
4050;DHT22;2039;50.894;6.888;2024-03-25T02:25:53;6.20;99.90
4050;DHT22;2039;50.894;6.888;2024-03-25T02:28:19;6.20;99.90
4050;DHT22;2039;50.894;6.888;2024-03-25T02:30:45;6.10;99.90
4050;DHT22;2039;50.894;6.888;2024-03-25T02:33:11;6.10;99.90
4050;DHT22;2039;50.894;6.888;2024-03-25T02:35:37;6.10;99.90
4050;DHT22;2039;50.894;6.888;2024-03-25T02:38:04;6.10;99.90
4050;DHT22;2039;50.894;6.888;2024-03-25T02:40:30;6.10;99.90
4050;DHT22;2039;50.894;6.888;2024-03-25T02:42:57;6.10;99.90
4050;DHT22;2039;50.894;6.888;2024-03-25T02:45:22;6.10;99.90
4050;DHT22;2039;50.894;6.888;2024-03-25T02:47:50;6.00;99.90
4050;DHT22;2039;50.894;6.888;2024-03-25T02:50:15;6.00;99.90
4050;DHT22;2039;50.894;6.888;2024-03-25T02:52:41;6.00;99.90
4050;DHT22;2039;50.894;6.888;2024-03-25T02:55:07;6.00;99.90
4050;DHT22;2039;50.894;6.888;2024-03-25T02:57:32;5.90;99.90
4050;DHT22;2039;50.894;6.888;2024-03-25T02:59:58;6.00;99.90
4050;DHT22;2039;50.894;6.888;2024-03-25T03:02:24;5.90;99.90
4050;DHT22;2039;50.894;6.888;2024-03-25T03:04:49;5.80;99.90
4050;DHT22;2039;50.894;6.888;2024-03-25T03:07:15;5.80;99.90
4050;DHT22;2039;50.894;6.888;2024-03-25T03:09:41;5.90;99.90
4050;DHT22;2039;50.894;6.888;2024-03-25T03:12:07;5.90;99.90
4050;DHT22;2039;50.894;6.888;2024-03-25T03:14:32;5.90;99.90
4050;DHT22;2039;50.894;6.888;2024-03-25T03:16:58;6.00;99.90
4050;DHT22;2039;50.894;6.888;2024-03-25T03:19:27;5.90;99.90
4050;DHT22;2039;50.894;6.888;2024-03-25T03:21:53;5.90;99.90
4050;DHT22;2039;50.894;6.888;2024-03-25T03:24:19;5.90;99.90
4050;DHT22;2039;50.894;6.888;2024-03-25T03:26:45;5.90;99.90
4050;DHT22;2039;50.894;6.888;2024-03-25T03:29:11;5.90;99.90
4050;DHT22;2039;50.894;6.888;2024-03-25T03:31:37;6.00;99.90
4050;DHT22;2039;50.894;6.888;2024-03-25T03:34:03;5.90;99.90
4050;DHT22;2039;50.894;6.888;2024-03-25T03:36:28;5.90;99.90
4050;DHT22;2039;50.894;6.888;2024-03-25T03:38:54;5.90;99.90
4050;DHT22;2039;50.894;6.888;2024-03-25T03:41:20;5.90;99.90
4050;DHT22;2039;50.894;6.888;2024-03-25T03:43:46;5.80;99.90
4050;DHT22;2039;50.894;6.888;2024-03-25T03:46:12;5.80;99.90
4050;DHT22;2039;50.894;6.888;2024-03-25T03:48:38;5.80;99.90
4050;DHT22;2039;50.894;6.888;2024-03-25T03:51:07;5.80;99.90
4050;DHT22;2039;50.894;6.888;2024-03-25T03:53:34;5.80;99.90
4050;DHT22;2039;50.894;6.888;2024-03-25T03:56:01;5.80;99.90
4050;DHT22;2039;50.894;6.888;2024-03-25T03:58:28;5.80;99.90
4050;DHT22;2039;50.894;6.888;2024-03-25T04:00:54;5.80;99.90
4050;DHT22;2039;50.894;6.888;2024-03-25T04:03:20;5.80;99.90
4050;DHT22;2039;50.894;6.888;2024-03-25T04:05:46;5.80;99.90
4050;DHT22;2039;50.894;6.888;2024-03-25T04:08:12;5.80;99.90
4050;DHT22;2039;50.894;6.888;2024-03-25T04:10:38;5.70;99.90
4050;DHT22;2039;50.894;6.888;2024-03-25T04:13:08;5.60;99.90
4050;DHT22;2039;50.894;6.888;2024-03-25T04:15:35;5.70;99.90
4050;DHT22;2039;50.894;6.888;2024-03-25T04:18:00;5.70;99.90
4050;DHT22;2039;50.894;6.888;2024-03-25T04:20:30;5.60;99.90
4050;DHT22;2039;50.894;6.888;2024-03-25T04:23:01;5.60;99.90
4050;DHT22;2039;50.894;6.888;2024-03-25T04:25:26;5.50;99.90
4050;DHT22;2039;50.894;6.888;2024-03-25T04:27:52;5.50;99.90
4050;DHT22;2039;50.894;6.888;2024-03-25T04:30:17;5.40;99.90
4050;DHT22;2039;50.894;6.888;2024-03-25T04:32:43;5.40;99.90
4050;DHT22;2039;50.894;6.888;2024-03-25T04:35:09;5.30;99.90
4050;DHT22;2039;50.894;6.888;2024-03-25T04:37:35;5.20;99.90
4050;DHT22;2039;50.894;6.888;2024-03-25T04:40:02;5.10;99.90
4050;DHT22;2039;50.894;6.888;2024-03-25T04:42:27;5.10;99.90
4050;DHT22;2039;50.894;6.888;2024-03-25T04:44:53;5.00;99.90
4050;DHT22;2039;50.894;6.888;2024-03-25T04:47:22;5.00;99.90
4050;DHT22;2039;50.894;6.888;2024-03-25T04:49:47;5.00;99.90
4050;DHT22;2039;50.894;6.888;2024-03-25T04:52:13;4.90;99.90
4050;DHT22;2039;50.894;6.888;2024-03-25T04:54:42;4.90;99.90
4050;DHT22;2039;50.894;6.888;2024-03-25T04:57:08;4.90;99.90
4050;DHT22;2039;50.894;6.888;2024-03-25T04:59:34;4.90;99.90
4050;DHT22;2039;50.894;6.888;2024-03-25T05:01:59;4.90;99.90
4050;DHT22;2039;50.894;6.888;2024-03-25T05:04:25;4.90;99.90
4050;DHT22;2039;50.894;6.888;2024-03-25T05:06:51;4.80;99.90
4050;DHT22;2039;50.894;6.888;2024-03-25T05:09:17;4.80;99.90
4050;DHT22;2039;50.894;6.888;2024-03-25T05:11:43;4.70;99.90
4050;DHT22;2039;50.894;6.888;2024-03-25T05:14:09;4.60;99.90
4050;DHT22;2039;50.894;6.888;2024-03-25T05:16:34;4.60;99.90
4050;DHT22;2039;50.894;6.888;2024-03-25T05:19:00;4.50;99.90
4050;DHT22;2039;50.894;6.888;2024-03-25T05:21:26;4.40;99.90
4050;DHT22;2039;50.894;6.888;2024-03-25T05:23:51;4.30;99.90
4050;DHT22;2039;50.894;6.888;2024-03-25T05:26:17;4.30;99.90
4050;DHT22;2039;50.894;6.888;2024-03-25T05:28:42;4.20;99.90
4050;DHT22;2039;50.894;6.888;2024-03-25T05:31:09;4.10;99.90
4050;DHT22;2039;50.894;6.888;2024-03-25T05:33:37;4.10;99.90
4050;DHT22;2039;50.894;6.888;2024-03-25T05:36:03;4.10;99.90
4050;DHT22;2039;50.894;6.888;2024-03-25T05:38:29;4.10;99.90
4050;DHT22;2039;50.894;6.888;2024-03-25T05:40:55;4.00;99.90
4050;DHT22;2039;50.894;6.888;2024-03-25T05:43:23;3.90;99.90
4050;DHT22;2039;50.894;6.888;2024-03-25T05:45:53;3.90;99.90
4050;DHT22;2039;50.894;6.888;2024-03-25T05:48:23;3.90;99.90
4050;DHT22;2039;50.894;6.888;2024-03-25T05:51:03;3.80;99.90
4050;DHT22;2039;50.894;6.888;2024-03-25T05:53:31;3.80;99.90
4050;DHT22;2039;50.894;6.888;2024-03-25T05:55:57;3.80;99.90
4050;DHT22;2039;50.894;6.888;2024-03-25T05:58:25;3.90;99.90
4050;DHT22;2039;50.894;6.888;2024-03-25T06:00:51;3.80;99.90
4050;DHT22;2039;50.894;6.888;2024-03-25T06:03:18;3.80;99.90
4050;DHT22;2039;50.894;6.888;2024-03-25T06:05:44;3.80;99.90
4050;DHT22;2039;50.894;6.888;2024-03-25T06:08:09;3.70;99.90
4050;DHT22;2039;50.894;6.888;2024-03-25T06:10:44;3.70;99.90
4050;DHT22;2039;50.894;6.888;2024-03-25T06:13:09;3.80;99.90
4050;DHT22;2039;50.894;6.888;2024-03-25T06:15:35;3.80;99.90
4050;DHT22;2039;50.894;6.888;2024-03-25T06:18:01;3.80;99.90
4050;DHT22;2039;50.894;6.888;2024-03-25T06:20:26;3.80;99.90
4050;DHT22;2039;50.894;6.888;2024-03-25T06:22:52;3.80;99.90
4050;DHT22;2039;50.894;6.888;2024-03-25T06:25:18;3.90;99.90
4050;DHT22;2039;50.894;6.888;2024-03-25T06:27:43;4.00;99.90
4050;DHT22;2039;50.894;6.888;2024-03-25T06:30:10;4.00;99.90
4050;DHT22;2039;50.894;6.888;2024-03-25T06:32:55;4.10;99.90
4050;DHT22;2039;50.894;6.888;2024-03-25T06:35:39;4.20;99.90
4050;DHT22;2039;50.894;6.888;2024-03-25T06:38:05;4.40;99.90
4050;DHT22;2039;50.894;6.888;2024-03-25T06:40:31;4.50;99.90
4050;DHT22;2039;50.894;6.888;2024-03-25T06:42:57;4.60;99.90
4050;DHT22;2039;50.894;6.888;2024-03-25T06:45:23;4.70;99.90
4050;DHT22;2039;50.894;6.888;2024-03-25T06:47:48;4.80;99.90
4050;DHT22;2039;50.894;6.888;2024-03-25T06:50:14;4.90;99.90
4050;DHT22;2039;50.894;6.888;2024-03-25T06:52:40;5.00;99.90
4050;DHT22;2039;50.894;6.888;2024-03-25T06:55:06;5.10;99.90
4050;DHT22;2039;50.894;6.888;2024-03-25T06:57:32;5.20;99.90
4050;DHT22;2039;50.894;6.888;2024-03-25T06:59:58;5.20;99.90
4050;DHT22;2039;50.894;6.888;2024-03-25T07:02:24;5.30;99.90
4050;DHT22;2039;50.894;6.888;2024-03-25T07:04:49;5.40;99.90
4050;DHT22;2039;50.894;6.888;2024-03-25T07:07:15;5.40;99.90
4050;DHT22;2039;50.894;6.888;2024-03-25T07:09:41;5.50;99.90
4050;DHT22;2039;50.894;6.888;2024-03-25T07:12:07;5.50;99.90
4050;DHT22;2039;50.894;6.888;2024-03-25T07:14:32;5.50;99.90
4050;DHT22;2039;50.894;6.888;2024-03-25T07:16:58;5.60;99.90
4050;DHT22;2039;50.894;6.888;2024-03-25T07:19:24;5.70;99.90
4050;DHT22;2039;50.894;6.888;2024-03-25T07:21:50;5.70;99.90
4050;DHT22;2039;50.894;6.888;2024-03-25T07:24:15;5.70;99.90
4050;DHT22;2039;50.894;6.888;2024-03-25T07:26:41;5.80;99.90
4050;DHT22;2039;50.894;6.888;2024-03-25T07:29:07;5.80;99.90
4050;DHT22;2039;50.894;6.888;2024-03-25T07:31:33;5.90;99.90
4050;DHT22;2039;50.894;6.888;2024-03-25T07:33:58;6.00;99.90
4050;DHT22;2039;50.894;6.888;2024-03-25T07:36:24;6.00;99.90
4050;DHT22;2039;50.894;6.888;2024-03-25T07:38:49;6.10;99.90
4050;DHT22;2039;50.894;6.888;2024-03-25T07:41:15;6.20;99.90
4050;DHT22;2039;50.894;6.888;2024-03-25T07:43:41;6.20;99.90
4050;DHT22;2039;50.894;6.888;2024-03-25T07:46:07;6.30;99.90
4050;DHT22;2039;50.894;6.888;2024-03-25T07:48:32;6.40;99.90
4050;DHT22;2039;50.894;6.888;2024-03-25T07:50:58;6.50;99.90
4050;DHT22;2039;50.894;6.888;2024-03-25T07:53:24;6.50;99.90
4050;DHT22;2039;50.894;6.888;2024-03-25T07:55:49;6.60;99.90
4050;DHT22;2039;50.894;6.888;2024-03-25T07:58:16;6.70;99.90
4050;DHT22;2039;50.894;6.888;2024-03-25T08:00:44;6.70;98.80
4050;DHT22;2039;50.894;6.888;2024-03-25T08:03:10;6.80;99.80
4050;DHT22;2039;50.894;6.888;2024-03-25T08:05:36;6.90;96.70
4050;DHT22;2039;50.894;6.888;2024-03-25T08:08:01;6.90;96.00
4050;DHT22;2039;50.894;6.888;2024-03-25T08:10:27;7.00;95.50
4050;DHT22;2039;50.894;6.888;2024-03-25T08:12:53;7.00;94.10
4050;DHT22;2039;50.894;6.888;2024-03-25T08:15:19;7.00;94.70
4050;DHT22;2039;50.894;6.888;2024-03-25T08:17:45;7.10;93.00
4050;DHT22;2039;50.894;6.888;2024-03-25T08:20:11;7.10;91.70
4050;DHT22;2039;50.894;6.888;2024-03-25T08:22:36;7.20;89.20
4050;DHT22;2039;50.894;6.888;2024-03-25T08:25:02;7.30;87.20
4050;DHT22;2039;50.894;6.888;2024-03-25T08:27:28;7.40;81.70
4050;DHT22;2039;50.894;6.888;2024-03-25T08:29:54;7.50;75.80
4050;DHT22;2039;50.894;6.888;2024-03-25T08:32:20;7.50;62.70
4050;DHT22;2039;50.894;6.888;2024-03-25T08:34:45;7.50;56.70
4050;DHT22;2039;50.894;6.888;2024-03-25T08:37:12;7.60;57.90
4050;DHT22;2039;50.894;6.888;2024-03-25T08:39:37;7.70;52.60
4050;DHT22;2039;50.894;6.888;2024-03-25T08:42:03;7.70;34.00
4050;DHT22;2039;50.894;6.888;2024-03-25T08:44:29;7.70;38.40
4050;DHT22;2039;50.894;6.888;2024-03-25T08:46:54;7.80;37.40
4050;DHT22;2039;50.894;6.888;2024-03-25T08:49:20;7.80;35.40
4050;DHT22;2039;50.894;6.888;2024-03-25T08:51:46;7.80;39.60
4050;DHT22;2039;50.894;6.888;2024-03-25T08:54:11;7.80;33.00
4050;DHT22;2039;50.894;6.888;2024-03-25T08:56:37;7.80;20.40
4050;DHT22;2039;50.894;6.888;2024-03-25T08:59:02;7.90;10.10
4050;DHT22;2039;50.894;6.888;2024-03-25T09:01:29;8.00;5.20
4050;DHT22;2039;50.894;6.888;2024-03-25T09:03:56;8.00;6.00
4050;DHT22;2039;50.894;6.888;2024-03-25T09:06:21;8.10;1.00
4050;DHT22;2039;50.894;6.888;2024-03-25T09:08:47;8.10;1.00
4050;DHT22;2039;50.894;6.888;2024-03-25T09:11:31;8.20;1.00
4050;DHT22;2039;50.894;6.888;2024-03-25T09:13:57;8.20;1.00
4050;DHT22;2039;50.894;6.888;2024-03-25T09:16:23;8.30;1.00
4050;DHT22;2039;50.894;6.888;2024-03-25T09:18:49;8.30;1.00
4050;DHT22;2039;50.894;6.888;2024-03-25T09:21:14;8.30;1.00
4050;DHT22;2039;50.894;6.888;2024-03-25T09:23:40;8.30;1.00
4050;DHT22;2039;50.894;6.888;2024-03-25T09:26:05;8.30;1.00
4050;DHT22;2039;50.894;6.888;2024-03-25T09:28:31;8.30;1.00
4050;DHT22;2039;50.894;6.888;2024-03-25T09:30:57;8.40;1.00
4050;DHT22;2039;50.894;6.888;2024-03-25T09:33:22;8.50;1.00
4050;DHT22;2039;50.894;6.888;2024-03-25T09:35:51;8.50;1.00
4050;DHT22;2039;50.894;6.888;2024-03-25T09:38:17;8.50;1.00
4050;DHT22;2039;50.894;6.888;2024-03-25T09:40:42;8.60;1.00
4050;DHT22;2039;50.894;6.888;2024-03-25T09:43:24;8.80;1.00
4050;DHT22;2039;50.894;6.888;2024-03-25T09:45:51;8.90;1.00
4050;DHT22;2039;50.894;6.888;2024-03-25T09:48:21;8.90;1.00
4050;DHT22;2039;50.894;6.888;2024-03-25T09:50:49;9.00;1.00
4050;DHT22;2039;50.894;6.888;2024-03-25T09:53:15;9.10;1.00
4050;DHT22;2039;50.894;6.888;2024-03-25T09:55:40;9.20;1.00
4050;DHT22;2039;50.894;6.888;2024-03-25T09:58:07;9.40;1.00
4050;DHT22;2039;50.894;6.888;2024-03-25T10:00:33;9.50;1.00
4050;DHT22;2039;50.894;6.888;2024-03-25T10:02:59;9.70;1.00
4050;DHT22;2039;50.894;6.888;2024-03-25T10:05:24;9.90;1.00
4050;DHT22;2039;50.894;6.888;2024-03-25T10:07:50;10.00;1.00
4050;DHT22;2039;50.894;6.888;2024-03-25T10:10:22;10.20;1.00
4050;DHT22;2039;50.894;6.888;2024-03-25T10:12:48;10.30;1.00
4050;DHT22;2039;50.894;6.888;2024-03-25T10:15:16;10.70;1.00
4050;DHT22;2039;50.894;6.888;2024-03-25T10:17:43;10.90;1.00
4050;DHT22;2039;50.894;6.888;2024-03-25T10:20:17;11.00;1.00
4050;DHT22;2039;50.894;6.888;2024-03-25T10:22:43;11.20;1.00
4050;DHT22;2039;50.894;6.888;2024-03-25T10:25:31;11.50;1.00
4050;DHT22;2039;50.894;6.888;2024-03-25T10:28:01;11.70;1.00
4050;DHT22;2039;50.894;6.888;2024-03-25T10:30:27;11.70;1.00
4050;DHT22;2039;50.894;6.888;2024-03-25T10:33:06;12.10;1.00
4050;DHT22;2039;50.894;6.888;2024-03-25T10:35:36;12.20;1.00
4050;DHT22;2039;50.894;6.888;2024-03-25T10:38:09;11.80;1.00
4050;DHT22;2039;50.894;6.888;2024-03-25T10:40:39;11.80;1.00
4050;DHT22;2039;50.894;6.888;2024-03-25T10:43:11;12.00;1.00
4050;DHT22;2039;50.894;6.888;2024-03-25T10:45:46;12.40;1.00
4050;DHT22;2039;50.894;6.888;2024-03-25T10:50:46;12.20;1.00
4050;DHT22;2039;50.894;6.888;2024-03-25T10:53:12;12.50;1.00
4050;DHT22;2039;50.894;6.888;2024-03-25T10:55:40;12.80;1.00
4050;DHT22;2039;50.894;6.888;2024-03-25T10:58:07;12.70;1.00
4050;DHT22;2039;50.894;6.888;2024-03-25T11:00:34;12.50;1.00
4050;DHT22;2039;50.894;6.888;2024-03-25T11:03:01;12.30;1.00
4050;DHT22;2039;50.894;6.888;2024-03-25T11:05:27;12.00;1.00
4050;DHT22;2039;50.894;6.888;2024-03-25T11:07:52;12.10;1.00
4050;DHT22;2039;50.894;6.888;2024-03-25T11:10:18;12.00;1.00
4050;DHT22;2039;50.894;6.888;2024-03-25T11:12:44;11.90;1.00
4050;DHT22;2039;50.894;6.888;2024-03-25T11:15:11;12.00;1.00
4050;DHT22;2039;50.894;6.888;2024-03-25T11:17:37;12.40;1.00
4050;DHT22;2039;50.894;6.888;2024-03-25T11:20:15;12.90;1.00
4050;DHT22;2039;50.894;6.888;2024-03-25T11:22:52;12.80;1.00
4050;DHT22;2039;50.894;6.888;2024-03-25T11:25:20;13.00;1.00
4050;DHT22;2039;50.894;6.888;2024-03-25T11:27:46;13.40;1.00
4050;DHT22;2039;50.894;6.888;2024-03-25T11:30:13;13.50;1.00
4050;DHT22;2039;50.894;6.888;2024-03-25T11:32:53;13.40;1.00
4050;DHT22;2039;50.894;6.888;2024-03-25T11:35:19;13.60;99.90
4050;DHT22;2039;50.894;6.888;2024-03-25T11:37:45;13.20;99.90
4050;DHT22;2039;50.894;6.888;2024-03-25T11:40:13;12.90;99.90
4050;DHT22;2039;50.894;6.888;2024-03-25T11:42:40;13.00;99.90
4050;DHT22;2039;50.894;6.888;2024-03-25T11:45:07;12.90;99.90
4050;DHT22;2039;50.894;6.888;2024-03-25T11:47:33;13.10;99.90
4050;DHT22;2039;50.894;6.888;2024-03-25T11:49:59;13.40;99.90
4050;DHT22;2039;50.894;6.888;2024-03-25T11:52:30;13.40;99.90
4050;DHT22;2039;50.894;6.888;2024-03-25T11:54:56;13.30;99.90
4050;DHT22;2039;50.894;6.888;2024-03-25T11:57:22;13.40;99.90
4050;DHT22;2039;50.894;6.888;2024-03-25T11:59:48;13.40;99.90
4050;DHT22;2039;50.894;6.888;2024-03-25T12:02:18;13.60;99.90
4050;DHT22;2039;50.894;6.888;2024-03-25T12:04:43;13.30;99.90
4050;DHT22;2039;50.894;6.888;2024-03-25T12:07:13;13.30;99.90
4050;DHT22;2039;50.894;6.888;2024-03-25T12:09:39;13.20;99.90
4050;DHT22;2039;50.894;6.888;2024-03-25T12:12:24;13.30;99.90
4050;DHT22;2039;50.894;6.888;2024-03-25T12:14:50;13.50;99.90
4050;DHT22;2039;50.894;6.888;2024-03-25T12:17:18;13.70;99.90
4050;DHT22;2039;50.894;6.888;2024-03-25T12:19:44;13.70;99.90
4050;DHT22;2039;50.894;6.888;2024-03-25T12:22:10;14.00;99.90
4050;DHT22;2039;50.894;6.888;2024-03-25T12:24:36;14.10;99.90
4050;DHT22;2039;50.894;6.888;2024-03-25T12:27:04;14.10;99.90
4050;DHT22;2039;50.894;6.888;2024-03-25T12:29:30;14.00;99.90
4050;DHT22;2039;50.894;6.888;2024-03-25T12:32:00;14.20;99.90
4050;DHT22;2039;50.894;6.888;2024-03-25T12:34:27;14.10;99.90
4050;DHT22;2039;50.894;6.888;2024-03-25T12:37:03;13.90;99.90
4050;DHT22;2039;50.894;6.888;2024-03-25T12:39:32;13.80;99.90
4050;DHT22;2039;50.894;6.888;2024-03-25T12:41:58;14.00;99.90
4050;DHT22;2039;50.894;6.888;2024-03-25T12:44:23;14.20;99.90
4050;DHT22;2039;50.894;6.888;2024-03-25T12:46:53;14.50;99.90
4050;DHT22;2039;50.894;6.888;2024-03-25T12:49:23;15.00;99.90
4050;DHT22;2039;50.894;6.888;2024-03-25T12:51:49;15.40;99.90
4050;DHT22;2039;50.894;6.888;2024-03-25T12:54:14;15.50;99.90
4050;DHT22;2039;50.894;6.888;2024-03-25T12:56:40;15.00;1.00
4050;DHT22;2039;50.894;6.888;2024-03-25T12:59:07;14.70;1.00
4050;DHT22;2039;50.894;6.888;2024-03-25T13:01:33;14.50;1.00
4050;DHT22;2039;50.894;6.888;2024-03-25T13:03:59;14.10;1.00
4050;DHT22;2039;50.894;6.888;2024-03-25T13:06:25;14.30;99.90
4050;DHT22;2039;50.894;6.888;2024-03-25T13:08:50;14.50;1.00
4050;DHT22;2039;50.894;6.888;2024-03-25T13:11:16;14.40;1.00
4050;DHT22;2039;50.894;6.888;2024-03-25T13:13:42;14.50;1.00
4050;DHT22;2039;50.894;6.888;2024-03-25T13:16:08;13.90;1.00
4050;DHT22;2039;50.894;6.888;2024-03-25T13:18:34;13.60;1.00
4050;DHT22;2039;50.894;6.888;2024-03-25T13:21:00;13.50;1.00
4050;DHT22;2039;50.894;6.888;2024-03-25T13:23:25;13.60;1.00
4050;DHT22;2039;50.894;6.888;2024-03-25T13:25:51;13.90;1.00
4050;DHT22;2039;50.894;6.888;2024-03-25T13:28:17;14.00;1.00
4050;DHT22;2039;50.894;6.888;2024-03-25T13:30:44;13.70;1.00
4050;DHT22;2039;50.894;6.888;2024-03-25T13:33:10;13.50;1.00
4050;DHT22;2039;50.894;6.888;2024-03-25T13:35:36;13.50;1.00
4050;DHT22;2039;50.894;6.888;2024-03-25T13:38:06;13.80;1.00
4050;DHT22;2039;50.894;6.888;2024-03-25T13:40:32;13.90;1.00
4050;DHT22;2039;50.894;6.888;2024-03-25T13:42:58;14.10;1.00
4050;DHT22;2039;50.894;6.888;2024-03-25T13:45:23;14.20;1.00
4050;DHT22;2039;50.894;6.888;2024-03-25T13:47:49;13.80;1.00
4050;DHT22;2039;50.894;6.888;2024-03-25T13:50:15;13.50;1.00
4050;DHT22;2039;50.894;6.888;2024-03-25T13:52:41;13.40;1.00
4050;DHT22;2039;50.894;6.888;2024-03-25T13:55:06;13.50;1.00
4050;DHT22;2039;50.894;6.888;2024-03-25T13:57:32;13.70;1.00
4050;DHT22;2039;50.894;6.888;2024-03-25T13:59:58;13.50;1.00
4050;DHT22;2039;50.894;6.888;2024-03-25T14:02:24;13.40;1.00
4050;DHT22;2039;50.894;6.888;2024-03-25T14:04:49;13.30;1.00
4050;DHT22;2039;50.894;6.888;2024-03-25T14:07:15;13.50;1.00
4050;DHT22;2039;50.894;6.888;2024-03-25T14:09:40;13.50;1.00
4050;DHT22;2039;50.894;6.888;2024-03-25T14:12:06;13.50;1.00
4050;DHT22;2039;50.894;6.888;2024-03-25T14:14:32;13.60;1.00
4050;DHT22;2039;50.894;6.888;2024-03-25T14:16:58;13.70;1.00
4050;DHT22;2039;50.894;6.888;2024-03-25T14:19:23;13.60;1.00
4050;DHT22;2039;50.894;6.888;2024-03-25T14:21:50;13.50;1.00
4050;DHT22;2039;50.894;6.888;2024-03-25T14:24:15;13.70;1.00
4050;DHT22;2039;50.894;6.888;2024-03-25T14:26:41;13.70;1.00
4050;DHT22;2039;50.894;6.888;2024-03-25T14:29:07;13.70;1.00
4050;DHT22;2039;50.894;6.888;2024-03-25T14:31:32;13.60;1.00
4050;DHT22;2039;50.894;6.888;2024-03-25T14:33:58;13.60;1.00
4050;DHT22;2039;50.894;6.888;2024-03-25T14:36:24;13.70;1.00
4050;DHT22;2039;50.894;6.888;2024-03-25T14:38:50;13.80;1.00
4050;DHT22;2039;50.894;6.888;2024-03-25T14:41:20;14.00;1.00
4050;DHT22;2039;50.894;6.888;2024-03-25T14:43:46;14.00;1.00
4050;DHT22;2039;50.894;6.888;2024-03-25T14:46:14;14.10;1.00
4050;DHT22;2039;50.894;6.888;2024-03-25T14:48:39;14.00;1.00
4050;DHT22;2039;50.894;6.888;2024-03-25T14:51:05;13.60;1.00
4050;DHT22;2039;50.894;6.888;2024-03-25T14:53:31;13.60;1.00
4050;DHT22;2039;50.894;6.888;2024-03-25T14:55:56;13.60;1.00
4050;DHT22;2039;50.894;6.888;2024-03-25T14:58:22;13.80;1.00
4050;DHT22;2039;50.894;6.888;2024-03-25T15:00:47;14.00;1.00
4050;DHT22;2039;50.894;6.888;2024-03-25T15:03:13;14.10;1.00
4050;DHT22;2039;50.894;6.888;2024-03-25T15:05:39;14.10;1.00
4050;DHT22;2039;50.894;6.888;2024-03-25T15:08:05;14.30;1.00
4050;DHT22;2039;50.894;6.888;2024-03-25T15:10:34;14.20;1.00
4050;DHT22;2039;50.894;6.888;2024-03-25T15:13:00;14.10;1.00
4050;DHT22;2039;50.894;6.888;2024-03-25T15:15:25;14.20;1.00
4050;DHT22;2039;50.894;6.888;2024-03-25T15:17:51;14.30;1.00
4050;DHT22;2039;50.894;6.888;2024-03-25T15:20:17;14.20;1.00
4050;DHT22;2039;50.894;6.888;2024-03-25T15:22:42;14.00;1.00
4050;DHT22;2039;50.894;6.888;2024-03-25T15:25:09;13.70;1.00
4050;DHT22;2039;50.894;6.888;2024-03-25T15:27:36;13.60;1.00
4050;DHT22;2039;50.894;6.888;2024-03-25T15:30:06;13.60;1.00
4050;DHT22;2039;50.894;6.888;2024-03-25T15:32:32;13.70;1.00
4050;DHT22;2039;50.894;6.888;2024-03-25T15:34:58;13.80;1.00
4050;DHT22;2039;50.894;6.888;2024-03-25T15:37:24;13.80;1.00
4050;DHT22;2039;50.894;6.888;2024-03-25T15:39:49;13.90;1.00
4050;DHT22;2039;50.894;6.888;2024-03-25T15:42:15;13.90;1.00
4050;DHT22;2039;50.894;6.888;2024-03-25T15:44:41;13.80;1.00
4050;DHT22;2039;50.894;6.888;2024-03-25T15:47:07;13.70;1.00
4050;DHT22;2039;50.894;6.888;2024-03-25T15:49:33;13.60;1.00
4050;DHT22;2039;50.894;6.888;2024-03-25T15:51:59;13.60;1.00
4050;DHT22;2039;50.894;6.888;2024-03-25T15:54:24;13.70;1.00
4050;DHT22;2039;50.894;6.888;2024-03-25T15:56:50;14.00;1.00
4050;DHT22;2039;50.894;6.888;2024-03-25T15:59:15;14.00;1.00
4050;DHT22;2039;50.894;6.888;2024-03-25T16:01:41;13.90;1.00
4050;DHT22;2039;50.894;6.888;2024-03-25T16:04:07;13.90;1.00
4050;DHT22;2039;50.894;6.888;2024-03-25T16:06:32;13.80;1.00
4050;DHT22;2039;50.894;6.888;2024-03-25T16:08:58;13.80;1.00
4050;DHT22;2039;50.894;6.888;2024-03-25T16:11:24;13.90;1.00
4050;DHT22;2039;50.894;6.888;2024-03-25T16:13:52;13.80;1.00
4050;DHT22;2039;50.894;6.888;2024-03-25T16:16:17;13.50;1.00